sensor_id;sensor_type;location;lat;lon;timestamp;pressure;altitude;pressure_sealevel;temperature;humidity
17593;BME280;8915;51.760;14.300;2022-11-20T00:01:20;100488.25;;;-2.48;100.00
17593;BME280;8915;51.760;14.300;2022-11-20T00:03:46;100488.88;;;-2.56;100.00
17593;BME280;8915;51.760;14.300;2022-11-20T00:06:15;100478.75;;;-2.53;100.00
17593;BME280;8915;51.760;14.300;2022-11-20T00:08:42;100486.19;;;-2.61;100.00
17593;BME280;8915;51.760;14.300;2022-11-20T00:11:11;100480.88;;;-2.70;100.00
17593;BME280;8915;51.760;14.300;2022-11-20T00:13:38;100479.22;;;-2.68;100.00
17593;BME280;8915;51.760;14.300;2022-11-20T00:16:06;100487.59;;;-2.74;100.00
17593;BME280;8915;51.760;14.300;2022-11-20T00:18:33;100479.97;;;-2.72;100.00
17593;BME280;8915;51.760;14.300;2022-11-20T00:21:01;100481.81;;;-2.67;100.00
17593;BME280;8915;51.760;14.300;2022-11-20T00:23:29;100477.69;;;-2.61;100.00
17593;BME280;8915;51.760;14.300;2022-11-20T00:25:55;100481.94;;;-2.62;100.00
17593;BME280;8915;51.760;14.300;2022-11-20T00:28:22;100477.72;;;-2.60;100.00
17593;BME280;8915;51.760;14.300;2022-11-20T00:30:49;100475.97;;;-2.61;100.00
17593;BME280;8915;51.760;14.300;2022-11-20T00:33:15;100480.38;;;-2.57;100.00
17593;BME280;8915;51.760;14.300;2022-11-20T00:35:41;100477.09;;;-2.51;100.00
17593;BME280;8915;51.760;14.300;2022-11-20T00:38:07;100482.25;;;-2.50;100.00
17593;BME280;8915;51.760;14.300;2022-11-20T00:40:35;100487.25;;;-2.53;100.00
17593;BME280;8915;51.760;14.300;2022-11-20T00:43:01;100482.25;;;-2.48;100.00
17593;BME280;8915;51.760;14.300;2022-11-20T00:45:28;100482.25;;;-2.50;100.00
17593;BME280;8915;51.760;14.300;2022-11-20T00:47:54;100484.03;;;-2.45;100.00
17593;BME280;8915;51.760;14.300;2022-11-20T00:50:20;100477.25;;;-2.43;100.00
17593;BME280;8915;51.760;14.300;2022-11-20T00:52:47;100475.59;;;-2.41;100.00
17593;BME280;8915;51.760;14.300;2022-11-20T00:55:13;100469.78;;;-2.37;100.00
17593;BME280;8915;51.760;14.300;2022-11-20T00:57:41;100480.66;;;-2.44;100.00
17593;BME280;8915;51.760;14.300;2022-11-20T01:00:08;100482.34;;;-2.45;100.00
17593;BME280;8915;51.760;14.300;2022-11-20T01:02:34;100486.72;;;-2.41;100.00
17593;BME280;8915;51.760;14.300;2022-11-20T01:05:01;100486.53;;;-2.47;100.00
17593;BME280;8915;51.760;14.300;2022-11-20T01:07:29;100484.94;;;-2.43;100.00
17593;BME280;8915;51.760;14.300;2022-11-20T01:09:55;100482.34;;;-2.45;100.00
17593;BME280;8915;51.760;14.300;2022-11-20T01:12:21;100481.47;;;-2.45;100.00
17593;BME280;8915;51.760;14.300;2022-11-20T01:14:49;100484.94;;;-2.43;100.00
17593;BME280;8915;51.760;14.300;2022-11-20T01:17:15;100490.06;;;-2.42;100.00
17593;BME280;8915;51.760;14.300;2022-11-20T01:19:42;100491.88;;;-2.38;100.00
17593;BME280;8915;51.760;14.300;2022-11-20T01:22:09;100492.75;;;-2.37;100.00
17593;BME280;8915;51.760;14.300;2022-11-20T01:24:35;100493.66;;;-2.35;100.00
17593;BME280;8915;51.760;14.300;2022-11-20T01:27:01;100491.09;;;-2.35;100.00
17593;BME280;8915;51.760;14.300;2022-11-20T01:29:28;100490.28;;;-2.33;100.00
17593;BME280;8915;51.760;14.300;2022-11-20T01:31:55;100493.66;;;-2.35;100.00
17593;BME280;8915;51.760;14.300;2022-11-20T01:34:22;100476.63;;;-2.35;100.00
17593;BME280;8915;51.760;14.300;2022-11-20T01:36:49;100483.44;;;-2.35;100.00
17593;BME280;8915;51.760;14.300;2022-11-20T01:39:17;100486.88;;;-2.33;100.00
17593;BME280;8915;51.760;14.300;2022-11-20T01:41:44;100489.41;;;-2.35;100.00
17593;BME280;8915;51.760;14.300;2022-11-20T01:44:52;100480.03;;;-2.34;100.00
17593;BME280;8915;51.760;14.300;2022-11-20T01:47:25;100485.13;;;-2.34;100.00
17593;BME280;8915;51.760;14.300;2022-11-20T01:49:56;100483.44;;;-2.35;100.00
17593;BME280;8915;51.760;14.300;2022-11-20T01:52:28;100480.91;;;-2.34;100.00
17593;BME280;8915;51.760;14.300;2022-11-20T01:54:59;100476.59;;;-2.36;100.00
17593;BME280;8915;51.760;14.300;2022-11-20T01:57:29;100469.59;;;-2.43;100.00
17593;BME280;8915;51.760;14.300;2022-11-20T02:00:03;100467.22;;;-2.36;100.00
17593;BME280;8915;51.760;14.300;2022-11-20T02:02:40;100465.41;;;-2.41;100.00
17593;BME280;8915;51.760;14.300;2022-11-20T02:05:12;100472.03;;;-2.48;100.00
17593;BME280;8915;51.760;14.300;2022-11-20T02:07:41;100470.25;;;-2.52;100.00
17593;BME280;8915;51.760;14.300;2022-11-20T02:10:07;100470.19;;;-2.54;100.00
17593;BME280;8915;51.760;14.300;2022-11-20T02:12:34;100461.56;;;-2.59;100.00
17593;BME280;8915;51.760;14.300;2022-11-20T02:15:18;100461.50;;;-2.62;100.00
17593;BME280;8915;51.760;14.300;2022-11-20T02:17:46;100464.78;;;-2.66;100.00
17593;BME280;8915;51.760;14.300;2022-11-20T02:20:12;100457.72;;;-2.78;100.00
17593;BME280;8915;51.760;14.300;2022-11-20T02:22:47;100460.91;;;-2.85;100.00
17593;BME280;8915;51.760;14.300;2022-11-20T02:25:18;100461.56;;;-2.92;100.00
17593;BME280;8915;51.760;14.300;2022-11-20T02:27:45;100461.44;;;-2.98;100.00
17593;BME280;8915;51.760;14.300;2022-11-20T02:30:12;100457.09;;;-3.02;100.00
17593;BME280;8915;51.760;14.300;2022-11-20T02:32:40;100457.84;;;-3.05;100.00
17593;BME280;8915;51.760;14.300;2022-11-20T02:38:23;100453.56;;;-3.06;100.00
17593;BME280;8915;51.760;14.300;2022-11-20T02:40:51;100457.53;;;-3.17;100.00
17593;BME280;8915;51.760;14.300;2022-11-20T02:43:17;100449.72;;;-3.24;100.00
17593;BME280;8915;51.760;14.300;2022-11-20T02:45:44;100446.09;;;-3.32;100.00
17593;BME280;8915;51.760;14.300;2022-11-20T02:48:10;100443.44;;;-3.35;100.00
17593;BME280;8915;51.760;14.300;2022-11-20T02:50:37;100443.59;;;-3.30;100.00
17593;BME280;8915;51.760;14.300;2022-11-20T02:53:04;100442.34;;;-3.43;100.00
17593;BME280;8915;51.760;14.300;2022-11-20T02:55:31;100443.94;;;-3.48;100.00
17593;BME280;8915;51.760;14.300;2022-11-20T02:57:58;100430.22;;;-3.52;100.00
17593;BME280;8915;51.760;14.300;2022-11-20T03:00:25;100435.38;;;-3.50;100.00
17593;BME280;8915;51.760;14.300;2022-11-20T03:02:51;100434.25;;;-3.60;100.00
17593;BME280;8915;51.760;14.300;2022-11-20T03:05:17;100439.22;;;-3.65;100.00
17593;BME280;8915;51.760;14.300;2022-11-20T03:07:44;100427.06;;;-3.73;100.00
17593;BME280;8915;51.760;14.300;2022-11-20T03:10:10;100429.72;;;-3.70;100.00
17593;BME280;8915;51.760;14.300;2022-11-20T03:12:37;100439.69;;;-3.78;100.00
17593;BME280;8915;51.760;14.300;2022-11-20T03:15:05;100435.28;;;-3.84;100.00
17593;BME280;8915;51.760;14.300;2022-11-20T03:17:32;100440.88;;;-3.95;100.00
17593;BME280;8915;51.760;14.300;2022-11-20T03:19:58;100434.00;;;-3.98;100.00
17593;BME280;8915;51.760;14.300;2022-11-20T03:22:25;100432.19;;;-4.02;100.00
17593;BME280;8915;51.760;14.300;2022-11-20T03:24:51;100438.78;;;-4.09;100.00
17593;BME280;8915;51.760;14.300;2022-11-20T03:27:17;100437.28;;;-4.02;100.00
17593;BME280;8915;51.760;14.300;2022-11-20T03:29:44;100437.03;;;-4.10;100.00
17593;BME280;8915;51.760;14.300;2022-11-20T03:32:11;100434.41;;;-4.13;100.00
17593;BME280;8915;51.760;14.300;2022-11-20T03:34:38;100423.41;;;-4.12;100.00
17593;BME280;8915;51.760;14.300;2022-11-20T03:37:04;100421.75;;;-4.11;100.00
17593;BME280;8915;51.760;14.300;2022-11-20T03:39:30;100425.91;;;-4.13;100.00
17593;BME280;8915;51.760;14.300;2022-11-20T03:41:57;100419.00;;;-4.18;100.00
17593;BME280;8915;51.760;14.300;2022-11-20T03:44:23;100414.69;;;-4.20;100.00
17593;BME280;8915;51.760;14.300;2022-11-20T03:46:49;100422.38;;;-4.19;100.00
17593;BME280;8915;51.760;14.300;2022-11-20T03:49:17;100420.44;;;-4.26;100.00
17593;BME280;8915;51.760;14.300;2022-11-20T03:51:43;100414.50;;;-4.26;100.00
17593;BME280;8915;51.760;14.300;2022-11-20T03:54:10;100412.72;;;-4.29;100.00
17593;BME280;8915;51.760;14.300;2022-11-20T03:56:38;100412.56;;;-4.33;100.00
17593;BME280;8915;51.760;14.300;2022-11-20T03:59:05;100406.38;;;-4.42;100.00
17593;BME280;8915;51.760;14.300;2022-11-20T04:01:34;100407.09;;;-4.46;100.00
17593;BME280;8915;51.760;14.300;2022-11-20T04:04:01;100404.44;;;-4.49;100.00
17593;BME280;8915;51.760;14.300;2022-11-20T04:06:32;100408.69;;;-4.49;100.00
17593;BME280;8915;51.760;14.300;2022-11-20T04:08:59;100406.09;;;-4.51;100.00
17593;BME280;8915;51.760;14.300;2022-11-20T04:11:28;100396.91;;;-4.46;100.00
17593;BME280;8915;51.760;14.300;2022-11-20T04:13:57;100398.50;;;-4.49;100.00
17593;BME280;8915;51.760;14.300;2022-11-20T04:16:24;100405.13;;;-4.54;100.00
17593;BME280;8915;51.760;14.300;2022-11-20T04:18:52;100401.00;;;-4.51;100.00
17593;BME280;8915;51.760;14.300;2022-11-20T04:21:19;100395.34;;;-4.42;100.00
17593;BME280;8915;51.760;14.300;2022-11-20T04:23:46;100398.72;;;-4.42;100.00
17593;BME280;8915;51.760;14.300;2022-11-20T04:26:13;100401.97;;;-4.47;100.00
17593;BME280;8915;51.760;14.300;2022-11-20T04:28:39;100399.41;;;-4.47;100.00
17593;BME280;8915;51.760;14.300;2022-11-20T04:31:08;100398.72;;;-4.42;100.00
17593;BME280;8915;51.760;14.300;2022-11-20T04:33:35;100389.38;;;-4.43;100.00
17593;BME280;8915;51.760;14.300;2022-11-20T04:36:04;100383.03;;;-4.28;100.00
17593;BME280;8915;51.760;14.300;2022-11-20T04:38:31;100393.06;;;-4.33;100.00
17593;BME280;8915;51.760;14.300;2022-11-20T04:41:01;100388.72;;;-4.37;100.00
17593;BME280;8915;51.760;14.300;2022-11-20T04:43:27;100395.38;;;-4.41;100.00
17593;BME280;8915;51.760;14.300;2022-11-20T04:45:56;100401.28;;;-4.42;100.00
17593;BME280;8915;51.760;14.300;2022-11-20T04:48:23;100393.75;;;-4.39;100.00
17593;BME280;8915;51.760;14.300;2022-11-20T04:50:49;100399.69;;;-4.38;100.00
17593;BME280;8915;51.760;14.300;2022-11-20T04:53:16;100399.84;;;-4.33;100.00
17593;BME280;8915;51.760;14.300;2022-11-20T04:55:43;100397.03;;;-4.43;100.00
17593;BME280;8915;51.760;14.300;2022-11-20T04:58:10;100402.78;;;-4.48;100.00
17593;BME280;8915;51.760;14.300;2022-11-20T05:00:37;100398.09;;;-4.34;100.00
17593;BME280;8915;51.760;14.300;2022-11-20T05:03:03;100406.91;;;-4.25;100.00
17593;BME280;8915;51.760;14.300;2022-11-20T05:05:30;100406.72;;;-4.31;100.00
17593;BME280;8915;51.760;14.300;2022-11-20T05:07:56;100404.78;;;-4.38;100.00
17593;BME280;8915;51.760;14.300;2022-11-20T05:10:23;100416.66;;;-4.39;100.00
17593;BME280;8915;51.760;14.300;2022-11-20T05:12:49;100410.44;;;-4.47;100.00
17593;BME280;8915;51.760;14.300;2022-11-20T05:15:17;100409.81;;;-4.41;100.00
17593;BME280;8915;51.760;14.300;2022-11-20T05:17:47;100407.25;;;-4.41;100.00
17593;BME280;8915;51.760;14.300;2022-11-20T05:20:13;100414.09;;;-4.39;100.00
17593;BME280;8915;51.760;14.300;2022-11-20T05:22:39;100418.41;;;-4.38;100.00
17593;BME280;8915;51.760;14.300;2022-11-20T05:25:06;100422.75;;;-4.33;100.00
17593;BME280;8915;51.760;14.300;2022-11-20T05:27:33;100418.09;;;-4.20;100.00
17593;BME280;8915;51.760;14.300;2022-11-20T05:29:59;100418.00;;;-4.23;100.00
17593;BME280;8915;51.760;14.300;2022-11-20T05:32:28;100408.06;;;-4.15;100.00
17593;BME280;8915;51.760;14.300;2022-11-20T05:34:54;100406.41;;;-4.13;100.00
17593;BME280;8915;51.760;14.300;2022-11-20T05:37:20;100404.50;;;-4.20;100.00
17593;BME280;8915;51.760;14.300;2022-11-20T05:39:47;100412.00;;;-4.25;100.00
17593;BME280;8915;51.760;14.300;2022-11-20T05:42:13;100416.22;;;-4.25;100.00
17593;BME280;8915;51.760;14.300;2022-11-20T05:44:58;100406.03;;;-4.25;100.00
17593;BME280;8915;51.760;14.300;2022-11-20T05:47:25;100400.94;;;-4.25;100.00
17593;BME280;8915;51.760;14.300;2022-11-20T05:49:53;100399.31;;;-4.23;100.00
17593;BME280;8915;51.760;14.300;2022-11-20T05:52:19;100398.47;;;-4.22;100.00
17593;BME280;8915;51.760;14.300;2022-11-20T05:54:45;100389.22;;;-4.20;100.00
17593;BME280;8915;51.760;14.300;2022-11-20T05:57:12;100401.03;;;-4.22;100.00
17593;BME280;8915;51.760;14.300;2022-11-20T05:59:38;100395.94;;;-4.22;100.00
17593;BME280;8915;51.760;14.300;2022-11-20T06:02:04;100395.81;;;-4.27;100.00
17593;BME280;8915;51.760;14.300;2022-11-20T06:04:31;100394.00;;;-4.31;100.00
17593;BME280;8915;51.760;14.300;2022-11-20T06:06:58;100389.88;;;-4.27;100.00
17593;BME280;8915;51.760;14.300;2022-11-20T06:09:25;100394.81;;;-4.32;100.00
17593;BME280;8915;51.760;14.300;2022-11-20T06:11:51;100404.09;;;-4.34;100.00
17593;BME280;8915;51.760;14.300;2022-11-20T06:14:17;100389.72;;;-4.32;100.00
17593;BME280;8915;51.760;14.300;2022-11-20T06:16:44;100398.94;;;-4.35;100.00
17593;BME280;8915;51.760;14.300;2022-11-20T06:19:10;100400.75;;;-4.31;100.00
17593;BME280;8915;51.760;14.300;2022-11-20T06:21:36;100398.94;;;-4.35;100.00
17593;BME280;8915;51.760;14.300;2022-11-20T06:24:05;100392.22;;;-4.33;100.00
17593;BME280;8915;51.760;14.300;2022-11-20T06:26:31;100395.75;;;-4.28;100.00
17593;BME280;8915;51.760;14.300;2022-11-20T06:28:58;100393.16;;;-4.30;100.00
17593;BME280;8915;51.760;14.300;2022-11-20T06:31:25;100394.91;;;-4.29;100.00
17593;BME280;8915;51.760;14.300;2022-11-20T06:33:52;100395.75;;;-4.28;100.00
17593;BME280;8915;51.760;14.300;2022-11-20T06:36:21;100394.81;;;-4.32;100.00
17593;BME280;8915;51.760;14.300;2022-11-20T06:38:48;100403.28;;;-4.31;100.00
17593;BME280;8915;51.760;14.300;2022-11-20T06:41:17;100394.84;;;-4.30;100.00
17593;BME280;8915;51.760;14.300;2022-11-20T06:43:44;100391.53;;;-4.28;100.00
17593;BME280;8915;51.760;14.300;2022-11-20T06:46:12;100395.91;;;-4.24;100.00
17593;BME280;8915;51.760;14.300;2022-11-20T06:48:39;100399.22;;;-4.26;100.00
17593;BME280;8915;51.760;14.300;2022-11-20T06:51:07;100397.44;;;-4.29;100.00
17593;BME280;8915;51.760;14.300;2022-11-20T06:53:33;100398.16;;;-4.33;100.00
17593;BME280;8915;51.760;14.300;2022-11-20T06:56:00;100394.75;;;-4.33;100.00
17593;BME280;8915;51.760;14.300;2022-11-20T06:58:29;100389.88;;;-4.27;100.00
17593;BME280;8915;51.760;14.300;2022-11-20T07:00:57;100388.97;;;-4.28;100.00
17593;BME280;8915;51.760;14.300;2022-11-20T07:03:24;100387.53;;;-4.20;100.00
17593;BME280;8915;51.760;14.300;2022-11-20T07:05:50;100394.22;;;-4.23;100.00
17593;BME280;8915;51.760;14.300;2022-11-20T07:08:16;100399.31;;;-4.23;100.00
17593;BME280;8915;51.760;14.300;2022-11-20T07:10:43;100397.13;;;-4.11;100.00
17593;BME280;8915;51.760;14.300;2022-11-20T07:13:09;100391.19;;;-4.10;100.00
17593;BME280;8915;51.760;14.300;2022-11-20T07:15:37;100385.31;;;-4.09;100.00
17593;BME280;8915;51.760;14.300;2022-11-20T07:18:03;100387.75;;;-4.12;100.00
17593;BME280;8915;51.760;14.300;2022-11-20T07:20:30;100391.25;;;-4.08;100.00
17593;BME280;8915;51.760;14.300;2022-11-20T07:22:57;100381.16;;;-4.05;100.00
17593;BME280;8915;51.760;14.300;2022-11-20T07:25:24;100378.81;;;-3.99;100.00
17593;BME280;8915;51.760;14.300;2022-11-20T07:27:50;100377.91;;;-4.00;100.00
17593;BME280;8915;51.760;14.300;2022-11-20T07:30:17;100383.84;;;-4.01;100.00
17593;BME280;8915;51.760;14.300;2022-11-20T07:32:47;100389.09;;;-3.94;100.00
17593;BME280;8915;51.760;14.300;2022-11-20T07:35:16;100380.66;;;-3.93;100.00
17593;BME280;8915;51.760;14.300;2022-11-20T07:37:43;100378.28;;;-3.87;100.00
17593;BME280;8915;51.760;14.300;2022-11-20T07:40:11;100387.75;;;-3.83;100.00
17593;BME280;8915;51.760;14.300;2022-11-20T07:42:38;100382.72;;;-3.80;100.00
17593;BME280;8915;51.760;14.300;2022-11-20T07:45:05;100380.41;;;-3.72;100.00
17593;BME280;8915;51.760;14.300;2022-11-20T07:47:35;100380.34;;;-3.74;100.00
17593;BME280;8915;51.760;14.300;2022-11-20T07:50:03;100382.19;;;-3.68;100.00
17593;BME280;8915;51.760;14.300;2022-11-20T07:52:29;100386.53;;;-3.66;100.00
17593;BME280;8915;51.760;14.300;2022-11-20T07:54:56;100376.50;;;-3.59;100.00
17593;BME280;8915;51.760;14.300;2022-11-20T07:57:22;100379.25;;;-3.52;100.00
17593;BME280;8915;51.760;14.300;2022-11-20T07:59:48;100377.72;;;-3.45;100.00
17593;BME280;8915;51.760;14.300;2022-11-20T08:02:15;100372.59;;;-3.47;100.00
17593;BME280;8915;51.760;14.300;2022-11-20T08:04:41;100375.28;;;-3.42;100.00
17593;BME280;8915;51.760;14.300;2022-11-20T08:07:09;100371.31;;;-3.31;100.00
17593;BME280;8915;51.760;14.300;2022-11-20T08:09:35;100371.28;;;-3.32;100.00
17593;BME280;8915;51.760;14.300;2022-11-20T08:12:01;100364.59;;;-3.29;100.00
17593;BME280;8915;51.760;14.300;2022-11-20T08:14:45;100373.28;;;-3.20;100.00
17593;BME280;8915;51.760;14.300;2022-11-20T08:17:11;100366.56;;;-3.17;100.00
17593;BME280;8915;51.760;14.300;2022-11-20T08:19:38;100369.50;;;-3.01;100.00
17593;BME280;8915;51.760;14.300;2022-11-20T08:22:04;100361.97;;;-2.97;100.00
17593;BME280;8915;51.760;14.300;2022-11-20T08:24:32;100374.09;;;-2.88;100.00
17593;BME280;8915;51.760;14.300;2022-11-20T08:26:59;100373.50;;;-2.78;100.00
17593;BME280;8915;51.760;14.300;2022-11-20T08:29:25;100372.69;;;-2.75;100.00
17593;BME280;8915;51.760;14.300;2022-11-20T08:31:52;100369.63;;;-2.62;100.00
17593;BME280;8915;51.760;14.300;2022-11-20T08:34:18;100373.06;;;-2.60;100.00
17593;BME280;8915;51.760;14.300;2022-11-20T08:36:45;100376.63;;;-2.53;100.00
17593;BME280;8915;51.760;14.300;2022-11-20T08:39:12;100368.44;;;-2.38;100.00
17593;BME280;8915;51.760;14.300;2022-11-20T08:41:39;100371.84;;;-2.38;100.00
17593;BME280;8915;51.760;14.300;2022-11-20T08:44:07;100367.75;;;-2.31;100.00
17593;BME280;8915;51.760;14.300;2022-11-20T08:46:35;100366.25;;;-2.21;100.00
17593;BME280;8915;51.760;14.300;2022-11-20T08:49:02;100364.72;;;-2.13;100.00
17593;BME280;8915;51.760;14.300;2022-11-20T08:51:28;100365.59;;;-2.13;100.00
17593;BME280;8915;51.760;14.300;2022-11-20T08:53:55;100370.72;;;-2.11;100.00
17593;BME280;8915;51.760;14.300;2022-11-20T08:56:21;100360.75;;;-2.00;100.00
17593;BME280;8915;51.760;14.300;2022-11-20T08:58:49;100369.31;;;-1.98;100.00
17593;BME280;8915;51.760;14.300;2022-11-20T09:01:16;100366.81;;;-1.95;100.00
17593;BME280;8915;51.760;14.300;2022-11-20T09:03:42;100361.75;;;-1.92;100.00
17593;BME280;8915;51.760;14.300;2022-11-20T09:06:09;100366.16;;;-1.85;100.00
17593;BME280;8915;51.760;14.300;2022-11-20T09:08:35;100355.13;;;-1.82;100.00
17593;BME280;8915;51.760;14.300;2022-11-20T09:11:02;100355.31;;;-1.73;100.00
17593;BME280;8915;51.760;14.300;2022-11-20T09:13:29;100358.66;;;-1.77;100.00
17593;BME280;8915;51.760;14.300;2022-11-20T09:15:59;100357.91;;;-1.72;100.00
17593;BME280;8915;51.760;14.300;2022-11-20T09:18:28;100348.53;;;-1.71;100.00
17593;BME280;8915;51.760;14.300;2022-11-20T09:20:57;100343.63;;;-1.62;100.00
17593;BME280;8915;51.760;14.300;2022-11-20T09:23:23;100349.66;;;-1.57;100.00
17593;BME280;8915;51.760;14.300;2022-11-20T09:25:50;100343.75;;;-1.54;100.00
17593;BME280;8915;51.760;14.300;2022-11-20T09:28:17;100335.25;;;-1.52;100.00
17593;BME280;8915;51.760;14.300;2022-11-20T09:30:44;100335.66;;;-1.30;100.00
17593;BME280;8915;51.760;14.300;2022-11-20T09:33:12;100330.13;;;-1.03;100.00
17593;BME280;8915;51.760;14.300;2022-11-20T09:35:38;100323.75;;;-0.74;100.00
17593;BME280;8915;51.760;14.300;2022-11-20T09:38:05;100338.03;;;-0.89;100.00
17593;BME280;8915;51.760;14.300;2022-11-20T09:40:34;100337.31;;;-0.80;100.00
17593;BME280;8915;51.760;14.300;2022-11-20T09:43:03;100335.63;;;-0.80;100.00
17593;BME280;8915;51.760;14.300;2022-11-20T09:45:54;100339.97;;;-0.75;100.00
17593;BME280;8915;51.760;14.300;2022-11-20T09:48:35;100339.84;;;-0.83;100.00
17593;BME280;8915;51.760;14.300;2022-11-20T09:51:10;100336.41;;;-0.84;100.00
17593;BME280;8915;51.760;14.300;2022-11-20T09:53:46;100330.47;;;-0.81;100.00
17593;BME280;8915;51.760;14.300;2022-11-20T09:56:20;100327.94;;;-0.80;100.00
17593;BME280;8915;51.760;14.300;2022-11-20T09:58:49;100327.03;;;-0.83;100.00
17593;BME280;8915;51.760;14.300;2022-11-20T10:01:18;100320.25;;;-0.80;100.00
17593;BME280;8915;51.760;14.300;2022-11-20T10:03:52;100315.28;;;-0.72;100.00
17593;BME280;8915;51.760;14.300;2022-11-20T10:06:24;100314.53;;;-0.63;100.00
17593;BME280;8915;51.760;14.300;2022-11-20T10:09:00;100306.97;;;-0.55;100.00
17593;BME280;8915;51.760;14.300;2022-11-20T10:11:36;100306.22;;;-0.47;100.00
17593;BME280;8915;51.760;14.300;2022-11-20T10:14:09;100308.88;;;-0.42;100.00
17593;BME280;8915;51.760;14.300;2022-11-20T10:16:46;100306.34;;;-0.38;100.00
17593;BME280;8915;51.760;14.300;2022-11-20T10:19:30;100298.88;;;-0.22;100.00
17593;BME280;8915;51.760;14.300;2022-11-20T10:22:04;100295.66;;;-0.04;100.00
17593;BME280;8915;51.760;14.300;2022-11-20T10:24:43;100304.41;;;0.13;100.00
17593;BME280;8915;51.760;14.300;2022-11-20T10:27:25;100297.66;;;0.20;100.00
17593;BME280;8915;51.760;14.300;2022-11-20T10:30:00;100308.06;;;0.34;100.00
17593;BME280;8915;51.760;14.300;2022-11-20T10:32:32;100302.22;;;0.49;100.00
17593;BME280;8915;51.760;14.300;2022-11-20T10:35:05;100299.75;;;0.61;100.00
17593;BME280;8915;51.760;14.300;2022-11-20T10:37:35;100299.84;;;0.69;100.00
17593;BME280;8915;51.760;14.300;2022-11-20T10:40:20;100298.19;;;0.74;100.00
17593;BME280;8915;51.760;14.300;2022-11-20T10:42:50;100300.75;;;0.75;100.00
17593;BME280;8915;51.760;14.300;2022-11-20T10:45:31;100297.28;;;0.72;100.00
17593;BME280;8915;51.760;14.300;2022-11-20T10:48:10;100291.28;;;0.70;100.00
17593;BME280;8915;51.760;14.300;2022-11-20T10:50:47;100289.69;;;0.81;100.00
17593;BME280;8915;51.760;14.300;2022-11-20T10:53:20;100283.66;;;0.79;100.00
17593;BME280;8915;51.760;14.300;2022-11-20T10:55:55;100287.84;;;0.68;100.00
17593;BME280;8915;51.760;14.300;2022-11-20T10:58:29;100295.38;;;0.51;100.00
17593;BME280;8915;51.760;14.300;2022-11-20T11:01:11;100291.91;;;0.46;100.00
17593;BME280;8915;51.760;14.300;2022-11-20T11:03:40;100287.63;;;0.45;100.00
17593;BME280;8915;51.760;14.300;2022-11-20T11:06:14;100286.78;;;0.46;100.00
17593;BME280;8915;51.760;14.300;2022-11-20T11:08:44;100292.75;;;0.43;100.00
17593;BME280;8915;51.760;14.300;2022-11-20T11:11:20;100304.53;;;0.26;100.00
17593;BME280;8915;51.760;14.300;2022-11-20T11:13:47;100286.44;;;0.12;100.00
17593;BME280;8915;51.760;14.300;2022-11-20T11:16:21;100288.06;;;0.02;100.00
17593;BME280;8915;51.760;14.300;2022-11-20T11:18:48;100279.41;;;-0.06;100.00
17593;BME280;8915;51.760;14.300;2022-11-20T11:21:21;100278.44;;;-0.17;100.00
17593;BME280;8915;51.760;14.300;2022-11-20T11:23:57;100276.69;;;-0.20;100.00
17593;BME280;8915;51.760;14.300;2022-11-20T11:26:24;100272.38;;;-0.24;100.00
17593;BME280;8915;51.760;14.300;2022-11-20T11:28:55;100269.94;;;-0.13;100.00
17593;BME280;8915;51.760;14.300;2022-11-20T11:31:23;100258.91;;;-0.06;100.00
17593;BME280;8915;51.760;14.300;2022-11-20T11:33:49;100259.84;;;0.02;100.00
17593;BME280;8915;51.760;14.300;2022-11-20T11:36:17;100261.69;;;0.12;100.00
17593;BME280;8915;51.760;14.300;2022-11-20T11:38:51;100255.69;;;0.13;100.00
17593;BME280;8915;51.760;14.300;2022-11-20T11:41:20;100256.53;;;0.11;100.00
17593;BME280;8915;51.760;14.300;2022-11-20T11:43:52;100250.50;;;0.07;100.00
17593;BME280;8915;51.760;14.300;2022-11-20T11:46:38;100250.56;;;0.13;100.00
17593;BME280;8915;51.760;14.300;2022-11-20T11:49:15;100249.72;;;0.13;100.00
17593;BME280;8915;51.760;14.300;2022-11-20T11:51:51;100244.63;;;0.16;100.00
17593;BME280;8915;51.760;14.300;2022-11-20T11:54:28;100247.13;;;0.11;100.00
17593;BME280;8915;51.760;14.300;2022-11-20T11:57:00;100250.50;;;0.07;100.00
17593;BME280;8915;51.760;14.300;2022-11-20T11:59:45;100242.03;;;0.14;100.00
17593;BME280;8915;51.760;14.300;2022-11-20T12:02:25;100242.91;;;0.16;100.00
17593;BME280;8915;51.760;14.300;2022-11-20T12:04:59;100239.50;;;0.16;100.00
17593;BME280;8915;51.760;14.300;2022-11-20T12:07:37;100230.09;;;0.16;100.00
17593;BME280;8915;51.760;14.300;2022-11-20T12:10:14;100236.94;;;0.19;100.00
17593;BME280;8915;51.760;14.300;2022-11-20T12:12:44;100226.69;;;0.19;100.00
17593;BME280;8915;51.760;14.300;2022-11-20T12:15:14;100233.53;;;0.18;100.00
17593;BME280;8915;51.760;14.300;2022-11-20T12:17:42;100225.81;;;0.17;100.00
17593;BME280;8915;51.760;14.300;2022-11-20T12:20:12;100226.66;;;0.14;100.00
17593;BME280;8915;51.760;14.300;2022-11-20T12:22:44;100230.91;;;0.12;100.00
17593;BME280;8915;51.760;14.300;2022-11-20T12:25:20;100226.56;;;0.07;100.00
17593;BME280;8915;51.760;14.300;2022-11-20T12:28:11;100221.41;;;0.05;100.00
17593;BME280;8915;51.760;14.300;2022-11-20T12:30:45;100218.88;;;0.04;100.00
17593;BME280;8915;51.760;14.300;2022-11-20T12:36:19;100220.50;;;-0.03;100.00
17593;BME280;8915;51.760;14.300;2022-11-20T12:38:58;100217.06;;;-0.05;100.00
17593;BME280;8915;51.760;14.300;2022-11-20T12:41:43;100212.81;;;-0.03;100.00
17593;BME280;8915;51.760;14.300;2022-11-20T12:44:41;100208.50;;;-0.04;100.00
17593;BME280;8915;51.760;14.300;2022-11-20T12:47:34;100207.63;;;-0.06;100.00
17593;BME280;8915;51.760;14.300;2022-11-20T12:50:09;100201.66;;;-0.08;100.00
17593;BME280;8915;51.760;14.300;2022-11-20T12:52:46;100199.09;;;-0.07;100.00
17593;BME280;8915;51.760;14.300;2022-11-20T12:55:21;100193.09;;;-0.06;100.00
17593;BME280;8915;51.760;14.300;2022-11-20T12:57:54;100187.97;;;-0.07;100.00